Time;durP1;ratioP1;P1;durP2;ratioP2;P2;SDS_P1;SDS_P2;PMS_P1;PMS_P2;Temp;Humidity;BMP_temperature;BMP_pressure;BME280_temperature;BME280_humidity;BME280_pressure;Samples;Min_cycle;Max_cycle;Signal;HPM_P1;HPM_P2
2023/04/14 00:01:04;;;;;;;22.58;21.17;;;;;;;;;;5024447;28;20456;-81
2023/04/14 00:03:31;;;;;;;22.45;20.92;;;;;;;;;;5023340;28;20206;-81
2023/04/14 00:05:58;;;;;;;22.95;21.17;;;;;;;;;;5023071;28;20213;-82
2023/04/14 00:08:25;;;;;;;22.90;21.30;;;;;;;;;;5023951;28;20225;-81
2023/04/14 00:10:52;;;;;;;21.88;20.67;;;;;;;;;;5023958;28;20454;-81
2023/04/14 00:13:19;;;;;;;22.15;20.58;;;;;;;;;;5025673;28;20209;-81
2023/04/14 00:15:48;;;;;;;22.67;21.08;;;;;;;;;;5024292;28;20255;-81
2023/04/14 00:18:15;;;;;;;22.35;20.77;;;;;;;;;;5025694;28;20234;-81
2023/04/14 00:20:42;;;;;;;21.67;20.48;;;;;;;;;;5026168;28;20244;-82
2023/04/14 00:23:09;;;;;;;21.67;20.35;;;;;;;;;;5023925;28;20205;-81
2023/04/14 00:25:36;;;;;;;21.83;20.50;;;;;;;;;;5022186;28;20255;-81
2023/04/14 00:28:03;;;;;;;22.25;20.42;;;;;;;;;;5022855;28;20209;-81
2023/04/14 00:30:30;;;;;;;22.27;20.77;;;;;;;;;;5024816;28;20209;-82
2023/04/14 00:32:58;;;;;;;21.73;20.48;;;;;;;;;;5023345;28;20209;-81
2023/04/14 00:35:25;;;;;;;22.92;21.35;;;;;;;;;;5023150;28;20225;-81
2023/04/14 00:37:52;;;;;;;21.90;20.38;;;;;;;;;;5022885;28;20631;-81
2023/04/14 00:40:19;;;;;;;21.55;20.00;;;;;;;;;;5026068;28;20205;-81
2023/04/14 00:42:47;;;;;;;20.20;19.10;;;;;;;;;;5025425;28;20273;-82
2023/04/14 00:45:14;;;;;;;22.65;21.25;;;;;;;;;;5024633;28;20204;-81
2023/04/14 00:47:45;;;;;;;23.03;21.47;;;;;;;;;;5024515;28;20213;-81
2023/04/14 00:50:14;;;;;;;21.88;20.63;;;;;;;;;;5024032;28;20501;-81
2023/04/14 00:52:42;;;;;;;21.77;20.48;;;;;;;;;;5025292;28;20213;-81
2023/04/14 00:55:09;;;;;;;21.92;20.48;;;;;;;;;;5023520;28;20833;-82
2023/04/14 00:57:37;;;;;;;22.73;21.13;;;;;;;;;;5023046;28;20273;-81
2023/04/14 01:00:04;;;;;;;22.70;21.30;;;;;;;;;;5020448;28;20225;-81
2023/04/14 01:02:31;;;;;;;22.52;21.02;;;;;;;;;;5021083;28;20209;-80
2023/04/14 01:04:58;;;;;;;23.85;22.30;;;;;;;;;;5021539;28;20586;-81
2023/04/14 01:07:27;;;;;;;22.45;20.85;;;;;;;;;;5020967;28;20266;-81
2023/04/14 01:09:56;;;;;;;22.10;20.50;;;;;;;;;;5022288;28;20228;-81
2023/04/14 01:12:40;;;;;;;21.73;20.40;;;;;;;;;;5023302;28;20603;-81
2023/04/14 01:15:11;;;;;;;24.02;22.30;;;;;;;;;;5021212;28;20679;-81
2023/04/14 01:17:41;;;;;;;22.15;20.85;;;;;;;;;;5022448;28;20209;-81
2023/04/14 01:20:10;;;;;;;22.60;21.10;;;;;;;;;;5020135;28;21060;-81
2023/04/14 01:22:42;;;;;;;22.90;21.20;;;;;;;;;;5020979;28;20216;-81
2023/04/14 01:25:24;;;;;;;22.75;21.25;;;;;;;;;;5020790;28;20253;-80
2023/04/14 01:27:57;;;;;;;21.70;20.20;;;;;;;;;;5023020;28;20185;-81
2023/04/14 01:30:40;;;;;;;22.80;21.13;;;;;;;;;;5021065;28;20205;-81
2023/04/14 01:33:10;;;;;;;21.30;19.83;;;;;;;;;;5021604;28;20186;-82
2023/04/14 01:35:38;;;;;;;21.80;20.40;;;;;;;;;;5024042;28;20463;-81
2023/04/14 01:38:06;;;;;;;22.38;20.60;;;;;;;;;;5023112;28;20213;-82
2023/04/14 01:40:34;;;;;;;21.08;19.65;;;;;;;;;;5022292;28;20205;-81
2023/04/14 01:43:04;;;;;;;20.97;19.77;;;;;;;;;;5022698;28;20215;-82
2023/04/14 01:45:34;;;;;;;20.73;19.42;;;;;;;;;;5021557;28;20436;-81
2023/04/14 01:48:01;;;;;;;21.45;19.85;;;;;;;;;;5021446;28;20190;-81
2023/04/14 01:50:30;;;;;;;21.80;20.45;;;;;;;;;;5022730;28;20739;-82
2023/04/14 01:52:59;;;;;;;22.33;20.70;;;;;;;;;;5024894;28;20212;-82
2023/04/14 01:55:28;;;;;;;21.70;20.05;;;;;;;;;;5022250;28;20224;-81
2023/04/14 01:57:57;;;;;;;21.83;20.63;;;;;;;;;;5021747;28;20224;-81
2023/04/14 02:00:24;;;;;;;20.75;19.65;;;;;;;;;;5023165;28;20265;-82
2023/04/14 02:02:52;;;;;;;22.85;20.35;;;;;;;;;;5021777;28;20205;-82
2023/04/14 02:05:20;;;;;;;21.50;20.10;;;;;;;;;;5021039;28;20198;-81
2023/04/14 02:07:48;;;;;;;22.23;20.60;;;;;;;;;;5020615;28;20204;-82
2023/04/14 02:10:16;;;;;;;22.42;20.92;;;;;;;;;;5019726;28;20229;-81
2023/04/14 02:12:43;;;;;;;21.98;20.55;;;;;;;;;;5020145;28;20617;-81
2023/04/14 02:15:12;;;;;;;21.73;20.33;;;;;;;;;;5020590;28;20226;-81
2023/04/14 02:17:40;;;;;;;21.90;20.60;;;;;;;;;;5020245;28;20240;-81
2023/04/14 02:20:09;;;;;;;21.50;20.25;;;;;;;;;;5020163;28;20238;-82
2023/04/14 02:22:36;;;;;;;22.17;20.40;;;;;;;;;;5021795;28;20735;-81
2023/04/14 02:25:04;;;;;;;21.33;20.05;;;;;;;;;;5022400;28;20576;-81
2023/04/14 02:27:34;;;;;;;22.13;20.67;;;;;;;;;;5020569;28;20208;-82
2023/04/14 02:30:03;;;;;;;21.50;20.20;;;;;;;;;;5021397;28;20225;-80
2023/04/14 02:32:31;;;;;;;21.88;20.45;;;;;;;;;;5017245;28;20311;-81
2023/04/14 02:35:02;;;;;;;20.67;19.35;;;;;;;;;;5021629;28;20198;-81
2023/04/14 02:37:32;;;;;;;21.30;20.00;;;;;;;;;;5026971;28;20195;-83
2023/04/14 02:40:01;;;;;;;20.98;19.58;;;;;;;;;;5026867;28;20252;-82
2023/04/14 02:42:30;;;;;;;21.17;19.98;;;;;;;;;;5027007;28;20749;-82
2023/04/14 02:45:01;;;;;;;22.02;20.63;;;;;;;;;;5026900;28;20207;-81
2023/04/14 02:47:30;;;;;;;23.27;21.80;;;;;;;;;;5027414;28;20208;-82
2023/04/14 02:49:59;;;;;;;21.23;20.00;;;;;;;;;;5026544;28;20291;-81
2023/04/14 02:52:28;;;;;;;21.77;20.38;;;;;;;;;;5025205;28;20212;-81
2023/04/14 02:54:56;;;;;;;20.77;19.67;;;;;;;;;;5024615;28;20245;-81
2023/04/14 02:57:23;;;;;;;22.00;20.42;;;;;;;;;;5024924;28;20215;-82
2023/04/14 02:59:52;;;;;;;21.50;19.90;;;;;;;;;;5025731;28;20228;-81
2023/04/14 03:02:19;;;;;;;22.63;21.05;;;;;;;;;;5025179;28;20294;-81
2023/04/14 03:04:46;;;;;;;22.25;20.75;;;;;;;;;;5024812;28;20200;-82
2023/04/14 03:07:14;;;;;;;22.05;20.75;;;;;;;;;;5024633;28;20207;-81
2023/04/14 03:09:42;;;;;;;21.95;20.38;;;;;;;;;;5024811;28;20260;-82
2023/04/14 03:12:12;;;;;;;22.30;20.50;;;;;;;;;;5024618;28;20208;-82
2023/04/14 03:14:39;;;;;;;21.98;20.40;;;;;;;;;;5026851;28;20203;-82
2023/04/14 03:17:08;;;;;;;21.77;20.20;;;;;;;;;;5027510;28;20229;-82
2023/04/14 03:19:36;;;;;;;22.27;20.92;;;;;;;;;;5026561;28;20233;-82
2023/04/14 03:22:04;;;;;;;23.55;21.85;;;;;;;;;;5027977;28;20208;-81
2023/04/14 03:24:32;;;;;;;21.67;20.25;;;;;;;;;;5026837;28;20680;-81
2023/04/14 03:27:01;;;;;;;20.70;19.40;;;;;;;;;;5025746;28;20227;-82
2023/04/14 03:29:29;;;;;;;21.05;19.95;;;;;;;;;;5025835;28;20225;-82
2023/04/14 03:31:58;;;;;;;32.20;29.70;;;;;;;;;;5025332;28;20268;-83
2023/04/14 03:34:28;;;;;;;20.73;19.60;;;;;;;;;;5025574;28;20235;-82
2023/04/14 03:36:56;;;;;;;21.95;20.55;;;;;;;;;;5024990;28;20259;-81
2023/04/14 03:39:25;;;;;;;22.50;20.90;;;;;;;;;;5024307;28;20244;-81
2023/04/14 03:41:53;;;;;;;22.02;20.65;;;;;;;;;;5024548;28;20691;-81
2023/04/14 03:44:20;;;;;;;22.27;20.92;;;;;;;;;;5024167;28;20209;-82
2023/04/14 03:46:48;;;;;;;22.42;20.77;;;;;;;;;;5023380;28;20202;-81
2023/04/14 03:49:15;;;;;;;22.17;20.92;;;;;;;;;;5024203;28;20228;-81
2023/04/14 03:51:44;;;;;;;22.27;20.73;;;;;;;;;;5023977;28;20743;-81
2023/04/14 03:54:12;;;;;;;23.35;21.75;;;;;;;;;;5024357;28;20208;-81
2023/04/14 03:56:40;;;;;;;21.88;20.50;;;;;;;;;;5023010;28;20291;-81
2023/04/14 03:59:11;;;;;;;22.77;21.10;;;;;;;;;;5023670;28;20259;-81
2023/04/14 04:01:38;;;;;;;21.70;20.30;;;;;;;;;;5022363;28;20219;-81
2023/04/14 04:04:07;;;;;;;21.90;20.35;;;;;;;;;;5023088;28;20256;-81
2023/04/14 04:06:35;;;;;;;21.85;20.58;;;;;;;;;;5021761;28;20208;-81
2023/04/14 04:09:05;;;;;;;22.92;21.27;;;;;;;;;;5022356;28;20322;-81
2023/04/14 04:11:32;;;;;;;23.40;21.70;;;;;;;;;;5021844;28;20209;-81
2023/04/14 04:14:00;;;;;;;22.70;21.20;;;;;;;;;;5022614;28;20202;-81
2023/04/14 04:16:29;;;;;;;24.13;22.42;;;;;;;;;;5021167;28;20259;-81
2023/04/14 04:18:57;;;;;;;30.80;28.10;;;;;;;;;;5021971;28;20264;-81
2023/04/14 04:21:25;;;;;;;24.83;23.05;;;;;;;;;;5022259;28;20223;-80
2023/04/14 04:23:54;;;;;;;23.23;21.80;;;;;;;;;;5022239;28;20258;-80
2023/04/14 04:26:24;;;;;;;23.45;21.83;;;;;;;;;;5022947;28;20209;-81
2023/04/14 04:28:51;;;;;;;22.70;20.95;;;;;;;;;;5022153;28;20259;-81
2023/04/14 04:31:19;;;;;;;25.80;23.85;;;;;;;;;;5021254;28;20216;-81
2023/04/14 04:33:47;;;;;;;21.55;20.20;;;;;;;;;;5019700;28;20236;-77
2023/04/14 04:36:14;;;;;;;22.55;21.00;;;;;;;;;;5017680;28;20221;-77
2023/04/14 04:38:41;;;;;;;22.70;21.10;;;;;;;;;;5017925;28;20782;-78
2023/04/14 04:41:08;;;;;;;23.58;21.60;;;;;;;;;;5017701;28;20223;-78
2023/04/14 04:43:37;;;;;;;23.17;21.55;;;;;;;;;;5018408;28;20677;-78
2023/04/14 04:46:14;;;;;;;24.40;22.65;;;;;;;;;;5017794;28;20208;-78
2023/04/14 04:48:41;;;;;;;23.40;21.80;;;;;;;;;;5017495;28;20801;-78
2023/04/14 04:51:09;;;;;;;22.75;21.30;;;;;;;;;;5017692;28;20544;-78
2023/04/14 04:53:36;;;;;;;23.00;21.42;;;;;;;;;;5018603;28;20194;-78
2023/04/14 04:56:03;;;;;;;22.70;21.30;;;;;;;;;;5017571;28;20305;-77
2023/04/14 04:58:29;;;;;;;23.45;21.70;;;;;;;;;;5018048;28;20225;-78
2023/04/14 05:00:58;;;;;;;23.40;21.80;;;;;;;;;;5017709;28;20207;-78
2023/04/14 05:03:25;;;;;;;23.02;21.50;;;;;;;;;;5017508;28;20270;-78
2023/04/14 05:05:52;;;;;;;24.42;22.60;;;;;;;;;;5017383;28;20231;-78
2023/04/14 05:08:19;;;;;;;22.35;20.85;;;;;;;;;;5017535;28;20222;-78
2023/04/14 05:10:46;;;;;;;22.02;20.60;;;;;;;;;;5018239;28;20239;-78
2023/04/14 05:13:13;;;;;;;23.00;21.38;;;;;;;;;;5017640;28;20264;-78
2023/04/14 05:15:40;;;;;;;22.92;21.42;;;;;;;;;;5018303;28;20207;-78
2023/04/14 05:18:08;;;;;;;23.30;21.15;;;;;;;;;;5017835;28;20212;-78
2023/04/14 05:20:35;;;;;;;23.20;21.67;;;;;;;;;;5018100;28;20227;-78
2023/04/14 05:23:02;;;;;;;23.17;21.30;;;;;;;;;;5017759;28;20577;-78
2023/04/14 05:25:29;;;;;;;23.23;21.58;;;;;;;;;;5017352;28;20268;-78
2023/04/14 05:27:56;;;;;;;22.13;20.75;;;;;;;;;;5017541;28;20251;-78
2023/04/14 05:30:24;;;;;;;23.05;21.45;;;;;;;;;;5017447;28;20235;-78
2023/04/14 05:32:51;;;;;;;23.48;21.77;;;;;;;;;;5016654;28;20217;-78
2023/04/14 05:35:19;;;;;;;23.17;21.27;;;;;;;;;;5017724;28;20254;-78
2023/04/14 05:37:46;;;;;;;22.25;20.95;;;;;;;;;;5016656;28;20222;-78
2023/04/14 05:40:13;;;;;;;22.85;21.35;;;;;;;;;;5016182;28;20235;-78
2023/04/14 05:42:41;;;;;;;23.13;21.15;;;;;;;;;;5016810;28;20271;-78
2023/04/14 05:45:09;;;;;;;23.33;21.83;;;;;;;;;;5016180;28;20218;-78
2023/04/14 05:47:38;;;;;;;21.90;20.42;;;;;;;;;;5017060;28;20284;-78
2023/04/14 05:50:05;;;;;;;22.33;20.80;;;;;;;;;;5016629;28;20229;-78
2023/04/14 05:52:34;;;;;;;22.95;21.45;;;;;;;;;;5017701;28;20217;-78
2023/04/14 05:55:01;;;;;;;22.80;21.30;;;;;;;;;;5017178;28;20207;-78
2023/04/14 05:57:28;;;;;;;22.85;21.15;;;;;;;;;;5017104;28;20225;-78
2023/04/14 05:59:55;;;;;;;21.50;20.20;;;;;;;;;;5017255;28;20226;-78
2023/04/14 06:02:22;;;;;;;23.05;21.48;;;;;;;;;;5017152;28;20206;-78
2023/04/14 06:04:49;;;;;;;23.80;22.15;;;;;;;;;;5015619;28;20681;-78
2023/04/14 06:07:16;;;;;;;25.10;23.20;;;;;;;;;;5015626;28;20206;-78
2023/04/14 06:09:45;;;;;;;23.30;21.80;;;;;;;;;;5016202;28;20774;-78
2023/04/14 06:12:13;;;;;;;22.92;21.23;;;;;;;;;;5016756;28;20220;-78
2023/04/14 06:14:40;;;;;;;22.30;20.80;;;;;;;;;;5016037;28;20212;-78
2023/04/14 06:17:07;;;;;;;22.75;21.25;;;;;;;;;;5015893;28;20229;-78
2023/04/14 06:19:34;;;;;;;22.33;21.05;;;;;;;;;;5015808;28;20243;-78
2023/04/14 06:22:01;;;;;;;23.67;21.48;;;;;;;;;;5017536;28;20759;-78
2023/04/14 06:24:28;;;;;;;335.75;99.30;;;;;;;;;;5016603;28;20240;-78
2023/04/14 06:26:57;;;;;;;22.75;20.98;;;;;;;;;;5015673;28;20210;-87
2023/04/14 06:29:24;;;;;;;24.33;21.70;;;;;;;;;;5016466;28;20221;-78
2023/04/14 06:31:51;;;;;;;22.70;20.87;;;;;;;;;;5016000;28;20281;-78
2023/04/14 06:34:18;;;;;;;23.40;21.33;;;;;;;;;;5016293;28;20431;-78
2023/04/14 06:36:45;;;;;;;21.70;20.40;;;;;;;;;;5015188;28;20764;-78
2023/04/14 06:39:13;;;;;;;23.27;20.95;;;;;;;;;;5016092;28;20249;-77
2023/04/14 06:41:40;;;;;;;21.95;20.42;;;;;;;;;;5015650;28;20210;-78
2023/04/14 06:44:08;;;;;;;23.40;21.83;;;;;;;;;;5015984;28;20205;-78
2023/04/14 06:46:36;;;;;;;25.97;22.50;;;;;;;;;;5014697;28;20201;-78
2023/04/14 06:49:04;;;;;;;23.07;21.17;;;;;;;;;;5015039;28;20473;-78
2023/04/14 06:51:31;;;;;;;152.88;101.28;;;;;;;;;;5016319;28;20863;-79
2023/04/14 06:53:58;;;;;;;100.82;90.55;;;;;;;;;;5020383;28;20209;-79
2023/04/14 06:56:25;;;;;;;98.07;87.38;;;;;;;;;;5019452;28;20221;-79
2023/04/14 06:58:52;;;;;;;160.15;101.75;;;;;;;;;;5020244;28;20295;-79
2023/04/14 07:01:21;;;;;;;95.78;67.90;;;;;;;;;;5018727;28;20206;-80
2023/04/14 07:03:48;;;;;;;187.55;103.10;;;;;;;;;;5019763;28;20218;-79
2023/04/14 07:06:16;;;;;;;294.83;129.65;;;;;;;;;;5018507;28;20217;-78
2023/04/14 07:08:44;;;;;;;431.88;130.13;;;;;;;;;;5017538;28;20595;-77
2023/04/14 07:11:11;;;;;;;24.83;22.67;;;;;;;;;;5018393;28;20221;-78
2023/04/14 07:13:40;;;;;;;23.92;22.20;;;;;;;;;;5023826;28;20447;-78
2023/04/14 07:16:07;;;;;;;23.97;22.37;;;;;;;;;;5037473;28;20208;-78
2023/04/14 07:18:36;;;;;;;23.33;21.53;;;;;;;;;;5037597;28;20438;-78
2023/04/14 07:21:03;;;;;;;26.33;24.27;;;;;;;;;;5041545;28;20989;-78
2023/04/14 07:23:32;;;;;;;41.37;36.40;;;;;;;;;;5040876;28;20472;-78
2023/04/14 07:25:59;;;;;;;41.17;37.10;;;;;;;;;;5039721;28;20455;-78
2023/04/14 07:28:27;;;;;;;36.20;32.80;;;;;;;;;;5038946;28;20609;-78
2023/04/14 07:30:54;;;;;;;34.43;30.93;;;;;;;;;;5039662;28;20828;-79
2023/04/14 07:33:21;;;;;;;30.00;26.80;;;;;;;;;;5039674;28;20818;-78
2023/04/14 07:35:50;;;;;;;27.73;25.40;;;;;;;;;;5038649;28;20430;-78
2023/04/14 07:38:17;;;;;;;27.20;25.00;;;;;;;;;;5039668;28;20465;-78
2023/04/14 07:40:44;;;;;;;28.13;26.13;;;;;;;;;;5043559;28;20491;-78
2023/04/14 07:43:11;;;;;;;28.13;25.53;;;;;;;;;;5043809;28;20452;-79
2023/04/14 07:45:38;;;;;;;27.37;25.20;;;;;;;;;;5042294;28;20486;-80
2023/04/14 07:48:05;;;;;;;27.27;25.27;;;;;;;;;;5042840;28;20859;-78
2023/04/14 07:50:32;;;;;;;26.80;24.80;;;;;;;;;;5042532;28;20521;-79
2023/04/14 07:53:00;;;;;;;27.13;24.80;;;;;;;;;;5039296;28;20422;-78
2023/04/14 07:55:27;;;;;;;26.63;24.63;;;;;;;;;;5040358;28;20422;-78
2023/04/14 07:57:55;;;;;;;25.37;23.37;;;;;;;;;;5039497;28;20973;-78
2023/04/14 08:00:22;;;;;;;26.47;23.97;;;;;;;;;;5037957;28;20463;-78
2023/04/14 08:02:49;;;;;;;27.20;24.60;;;;;;;;;;5041618;28;20479;-78
2023/04/14 08:05:16;;;;;;;25.60;23.67;;;;;;;;;;5042112;28;20825;-79
2023/04/14 08:07:44;;;;;;;27.37;25.37;;;;;;;;;;5041923;28;20443;-78
2023/04/14 08:10:12;;;;;;;25.80;23.80;;;;;;;;;;5042007;28;20472;-78
2023/04/14 08:12:39;;;;;;;26.60;24.60;;;;;;;;;;5041057;28;20426;-79
2023/04/14 08:15:07;;;;;;;26.37;24.50;;;;;;;;;;5041094;28;20760;-78
2023/04/14 08:17:34;;;;;;;25.87;23.83;;;;;;;;;;5040108;28;20488;-78
2023/04/14 08:20:01;;;;;;;26.67;24.67;;;;;;;;;;5040257;28;20466;-80
2023/04/14 08:22:27;;;;;;;25.93;23.63;;;;;;;;;;5038270;28;20418;-84
2023/04/14 08:24:54;;;;;;;26.73;24.60;;;;;;;;;;5038264;28;20441;-78
2023/04/14 08:27:23;;;;;;;28.00;25.63;;;;;;;;;;5037869;28;20415;-77
2023/04/14 08:29:50;;;;;;;26.43;24.53;;;;;;;;;;5037048;28;21041;-78
2023/04/14 08:32:17;;;;;;;26.73;24.43;;;;;;;;;;5038111;28;20422;-78
2023/04/14 08:34:44;;;;;;;25.53;23.40;;;;;;;;;;5037813;28;20452;-78
2023/04/14 08:37:11;;;;;;;28.23;25.80;;;;;;;;;;5036700;28;20476;-78
2023/04/14 08:39:38;;;;;;;27.17;24.93;;;;;;;;;;5037707;28;20496;-78
2023/04/14 08:42:05;;;;;;;26.33;24.30;;;;;;;;;;5037875;28;20498;-78
2023/04/14 08:44:34;;;;;;;26.13;23.90;;;;;;;;;;5037724;28;20463;-78
2023/04/14 08:47:01;;;;;;;26.00;24.20;;;;;;;;;;5037267;28;20448;-78
2023/04/14 08:49:32;;;;;;;26.43;24.50;;;;;;;;;;5038302;28;21045;-78
2023/04/14 08:52:02;;;;;;;26.20;24.23;;;;;;;;;;5036737;28;20912;-78
2023/04/14 08:54:30;;;;;;;26.70;24.47;;;;;;;;;;5037473;28;20767;-78
2023/04/14 08:56:58;;;;;;;27.80;25.30;;;;;;;;;;5036462;28;20472;-78
2023/04/14 08:59:26;;;;;;;26.07;24.20;;;;;;;;;;5036004;28;20985;-82
2023/04/14 09:01:55;;;;;;;26.43;24.30;;;;;;;;;;5035675;28;20827;-77
2023/04/14 09:04:23;;;;;;;27.97;25.50;;;;;;;;;;5035080;28;21100;-77
2023/04/14 09:06:51;;;;;;;27.67;25.57;;;;;;;;;;5034691;28;20441;-77
2023/04/14 09:09:18;;;;;;;29.60;26.77;;;;;;;;;;5033198;28;20570;-76
2023/04/14 09:11:45;;;;;;;28.93;26.77;;;;;;;;;;5033582;28;20422;-77
2023/04/14 09:14:13;;;;;;;28.63;26.37;;;;;;;;;;5033665;28;20493;-77
2023/04/14 09:16:40;;;;;;;27.67;25.57;;;;;;;;;;5032267;28;21287;-76
2023/04/14 09:19:09;;;;;;;26.33;24.53;;;;;;;;;;5031821;28;20483;-76
2023/04/14 09:21:36;;;;;;;27.10;25.27;;;;;;;;;;5032766;28;20471;-77
2023/04/14 09:24:04;;;;;;;28.23;25.70;;;;;;;;;;5033872;28;20853;-80
2023/04/14 09:26:31;;;;;;;27.13;24.83;;;;;;;;;;5035221;28;20422;-79
2023/04/14 09:28:58;;;;;;;26.13;24.40;;;;;;;;;;5034063;28;20468;-78
2023/04/14 09:31:25;;;;;;;26.73;24.53;;;;;;;;;;5033761;28;20833;-79
2023/04/14 09:33:53;;;;;;;25.30;23.60;;;;;;;;;;5034055;28;20460;-80
2023/04/14 09:36:22;;;;;;;26.93;24.90;;;;;;;;;;5033633;28;20462;-79
2023/04/14 09:38:50;;;;;;;28.57;26.57;;;;;;;;;;5033989;28;20498;-79
2023/04/14 09:41:17;;;;;;;26.60;24.87;;;;;;;;;;5032473;28;20449;-79
2023/04/14 09:43:45;;;;;;;27.13;25.03;;;;;;;;;;5034426;28;20443;-79
2023/04/14 09:46:14;;;;;;;26.43;24.53;;;;;;;;;;5033714;28;20589;-79
2023/04/14 09:48:50;;;;;;;25.87;23.83;;;;;;;;;;5034239;28;20478;-79
2023/04/14 09:51:17;;;;;;;26.50;24.50;;;;;;;;;;5034035;28;20410;-79
2023/04/14 09:53:46;;;;;;;28.83;26.40;;;;;;;;;;5033815;28;20472;-80
2023/04/14 09:56:13;;;;;;;27.90;25.77;;;;;;;;;;5033545;28;20438;-80
2023/04/14 09:58:42;;;;;;;27.70;25.80;;;;;;;;;;5034323;28;20545;-80
2023/04/14 10:01:12;;;;;;;28.30;26.30;;;;;;;;;;5034255;28;20855;-80
2023/04/14 10:03:39;;;;;;;28.10;26.00;;;;;;;;;;5034428;28;20411;-78
2023/04/14 10:06:08;;;;;;;27.43;25.33;;;;;;;;;;5033514;28;20430;-80
2023/04/14 10:08:36;;;;;;;27.63;25.60;;;;;;;;;;5033305;28;20521;-79
2023/04/14 10:11:18;;;;;;;29.07;26.80;;;;;;;;;;5034293;28;20465;-79
2023/04/14 10:13:45;;;;;;;27.93;25.83;;;;;;;;;;5033864;28;20426;-79
2023/04/14 10:16:12;;;;;;;28.57;25.90;;;;;;;;;;5033274;28;20429;-79
2023/04/14 10:18:39;;;;;;;26.63;24.83;;;;;;;;;;5033964;28;20490;-79
2023/04/14 10:21:07;;;;;;;28.13;26.10;;;;;;;;;;5033808;28;20482;-79
2023/04/14 10:23:35;;;;;;;28.30;26.27;;;;;;;;;;5034138;28;20429;-79
2023/04/14 10:26:02;;;;;;;28.67;26.73;;;;;;;;;;5033585;28;20447;-78
2023/04/14 10:28:31;;;;;;;27.67;25.90;;;;;;;;;;5033313;28;20459;-79
2023/04/14 10:30:58;;;;;;;28.17;26.17;;;;;;;;;;5033849;28;20435;-79
2023/04/14 10:33:26;;;;;;;28.27;26.40;;;;;;;;;;5033456;28;20459;-79
2023/04/14 10:35:57;;;;;;;26.93;25.00;;;;;;;;;;5032951;28;20475;-77
2023/04/14 10:38:36;;;;;;;27.80;25.67;;;;;;;;;;5034071;28;20498;-78
2023/04/14 10:41:05;;;;;;;27.40;25.33;;;;;;;;;;5033762;28;20436;-77
2023/04/14 10:43:35;;;;;;;27.33;25.00;;;;;;;;;;5032494;28;20446;-78
2023/04/14 10:46:03;;;;;;;27.20;25.17;;;;;;;;;;5032838;28;20476;-78
2023/04/14 10:48:33;;;;;;;28.20;26.30;;;;;;;;;;5033244;28;20434;-78
2023/04/14 10:51:00;;;;;;;27.33;25.30;;;;;;;;;;5033370;28;20515;-78
2023/04/14 10:53:27;;;;;;;26.60;24.63;;;;;;;;;;5033354;28;20476;-78
2023/04/14 10:55:55;;;;;;;27.27;25.03;;;;;;;;;;5035865;28;20437;-78
2023/04/14 10:58:23;;;;;;;26.17;24.30;;;;;;;;;;5036467;28;20491;-79
2023/04/14 11:00:53;;;;;;;26.97;25.17;;;;;;;;;;5038005;28;20472;-78
2023/04/14 11:03:20;;;;;;;26.67;24.47;;;;;;;;;;5036892;28;20839;-78
2023/04/14 11:05:49;;;;;;;27.33;25.30;;;;;;;;;;5036040;28;21482;-78
2023/04/14 11:08:17;;;;;;;26.93;24.80;;;;;;;;;;5036469;28;20474;-80
2023/04/14 11:10:50;;;;;;;26.33;24.60;;;;;;;;;;5037663;28;20458;-81
2023/04/14 11:13:18;;;;;;;27.13;25.23;;;;;;;;;;5020577;28;20423;-78
2023/04/14 11:15:46;;;;;;;27.37;25.50;;;;;;;;;;5018850;28;20462;-80
2023/04/14 11:18:15;;;;;;;27.00;24.70;;;;;;;;;;5020299;28;20490;-81
2023/04/14 11:20:42;;;;;;;25.80;24.20;;;;;;;;;;5018887;28;20460;-80
2023/04/14 11:23:09;;;;;;;27.30;25.40;;;;;;;;;;5019529;28;20874;-80
2023/04/14 11:25:38;;;;;;;26.10;24.00;;;;;;;;;;5018731;28;20452;-80
2023/04/14 11:28:05;;;;;;;26.47;24.17;;;;;;;;;;5032639;28;20443;-80
2023/04/14 11:30:32;;;;;;;25.90;24.10;;;;;;;;;;5039237;28;20468;-79
2023/04/14 11:32:59;;;;;;;26.83;25.07;;;;;;;;;;5038000;28;20455;-83
2023/04/14 11:35:28;;;;;;;25.57;23.43;;;;;;;;;;5017991;28;20448;-79
2023/04/14 11:37:56;;;;;;;26.80;24.90;;;;;;;;;;5020564;28;20570;-79
2023/04/14 11:40:23;;;;;;;24.97;23.37;;;;;;;;;;5019041;28;20510;-80
2023/04/14 11:42:52;;;;;;;26.97;24.63;;;;;;;;;;5020454;28;20431;-79
2023/04/14 11:45:19;;;;;;;24.57;22.97;;;;;;;;;;5020874;28;20437;-80
2023/04/14 11:48:00;;;;;;;25.73;24.00;;;;;;;;;;5023142;28;20460;-80
2023/04/14 11:50:30;;;;;;;26.60;24.57;;;;;;;;;;5037194;28;20431;-81
2023/04/14 11:52:58;;;;;;;25.87;23.80;;;;;;;;;;5045090;28;20486;-79
2023/04/14 11:55:26;;;;;;;24.70;22.97;;;;;;;;;;5045130;28;20419;-79
2023/04/14 11:57:53;;;;;;;24.83;23.23;;;;;;;;;;5044244;28;20898;-79
2023/04/14 12:00:20;;;;;;;25.53;23.93;;;;;;;;;;5045652;28;20979;-79
2023/04/14 12:02:48;;;;;;;24.63;23.10;;;;;;;;;;5044981;28;20451;-80
2023/04/14 12:05:21;;;;;;;25.80;24.20;;;;;;;;;;5043724;28;20430;-80
2023/04/14 12:07:50;;;;;;;24.60;23.00;;;;;;;;;;5044010;28;20442;-80
2023/04/14 12:10:18;;;;;;;23.97;22.23;;;;;;;;;;5042652;28;20943;-79
2023/04/14 12:12:45;;;;;;;25.00;23.30;;;;;;;;;;5044519;28;20466;-79
2023/04/14 12:15:13;;;;;;;25.07;22.97;;;;;;;;;;5042401;28;20452;-79
2023/04/14 12:17:40;;;;;;;25.70;23.90;;;;;;;;;;5042843;28;20940;-80
2023/04/14 12:20:14;;;;;;;25.07;23.37;;;;;;;;;;5042392;28;20480;-80
2023/04/14 12:22:41;;;;;;;25.13;23.20;;;;;;;;;;5043027;28;20430;-79
2023/04/14 12:25:12;;;;;;;25.13;23.33;;;;;;;;;;5043074;28;20922;-79
2023/04/14 12:27:39;;;;;;;25.40;23.80;;;;;;;;;;5042795;28;20410;-79
2023/04/14 12:30:08;;;;;;;25.80;24.00;;;;;;;;;;5042162;28;20543;-79
2023/04/14 12:32:39;;;;;;;25.30;23.23;;;;;;;;;;5042696;28;20447;-80
2023/04/14 12:35:06;;;;;;;25.90;24.00;;;;;;;;;;5042414;28;20475;-80
2023/04/14 12:37:34;;;;;;;26.17;24.40;;;;;;;;;;5041941;28;20456;-79
2023/04/14 12:40:05;;;;;;;27.30;25.43;;;;;;;;;;5040663;28;20499;-81
2023/04/14 12:42:45;;;;;;;26.00;24.17;;;;;;;;;;5041747;28;20446;-79
2023/04/14 12:45:12;;;;;;;27.70;25.67;;;;;;;;;;5041610;28;20468;-80
2023/04/14 12:47:39;;;;;;;25.47;23.70;;;;;;;;;;5040122;28;20496;-80
2023/04/14 12:50:21;;;;;;;27.00;24.93;;;;;;;;;;5039451;28;20525;-79
2023/04/14 12:52:48;;;;;;;26.70;24.53;;;;;;;;;;5023641;28;20469;-80
2023/04/14 12:55:19;;;;;;;26.83;24.83;;;;;;;;;;5041087;28;20436;-80
2023/04/14 12:57:48;;;;;;;25.17;23.30;;;;;;;;;;5040443;28;20443;-80
2023/04/14 13:00:15;;;;;;;25.83;24.13;;;;;;;;;;5038235;28;20481;-79
2023/04/14 13:02:42;;;;;;;26.57;24.90;;;;;;;;;;5036348;28;20449;-79
2023/04/14 13:05:10;;;;;;;24.57;22.80;;;;;;;;;;5036488;28;20458;-79
2023/04/14 13:07:37;;;;;;;26.00;24.23;;;;;;;;;;5036173;28;20430;-79
2023/04/14 13:10:05;;;;;;;26.23;24.53;;;;;;;;;;5035885;28;20442;-79
2023/04/14 13:12:32;;;;;;;25.73;24.07;;;;;;;;;;5036243;28;20803;-79
2023/04/14 13:15:00;;;;;;;26.13;24.30;;;;;;;;;;5038641;28;20406;-79
2023/04/14 13:17:27;;;;;;;27.27;25.37;;;;;;;;;;5044332;28;20449;-80
2023/04/14 13:19:54;;;;;;;27.10;25.10;;;;;;;;;;5046452;28;20496;-79
2023/04/14 13:22:21;;;;;;;26.07;24.13;;;;;;;;;;5045536;28;20483;-79
2023/04/14 13:24:49;;;;;;;26.63;24.60;;;;;;;;;;5044139;28;20492;-79
2023/04/14 13:27:16;;;;;;;26.13;24.43;;;;;;;;;;5044545;28;20429;-80
2023/04/14 13:29:43;;;;;;;25.93;24.20;;;;;;;;;;5044960;28;20460;-80
2023/04/14 13:32:12;;;;;;;24.63;23.13;;;;;;;;;;5043673;28;20855;-80
2023/04/14 13:34:39;;;;;;;25.83;24.23;;;;;;;;;;5043400;28;20426;-81
2023/04/14 13:37:06;;;;;;;26.07;24.30;;;;;;;;;;5045803;28;20481;-80
2023/04/14 13:39:33;;;;;;;24.77;23.17;;;;;;;;;;5045172;28;20549;-80
2023/04/14 13:42:00;;;;;;;25.07;23.47;;;;;;;;;;5043461;28;20422;-79
2023/04/14 13:44:27;;;;;;;24.70;22.93;;;;;;;;;;5038363;28;20924;-78
2023/04/14 13:46:55;;;;;;;23.67;22.27;;;;;;;;;;5034901;28;20855;-81
2023/04/14 13:49:23;;;;;;;23.60;22.10;;;;;;;;;;5035593;28;20463;-77
2023/04/14 13:51:50;;;;;;;24.83;22.60;;;;;;;;;;5035815;28;20795;-80
2023/04/14 13:54:17;;;;;;;24.60;22.80;;;;;;;;;;5036524;28;20492;-78
2023/04/14 13:56:44;;;;;;;24.23;22.53;;;;;;;;;;5035163;28;20460;-78
2023/04/14 13:59:14;;;;;;;24.50;22.70;;;;;;;;;;5034755;28;20458;-78
2023/04/14 14:01:41;;;;;;;24.33;22.83;;;;;;;;;;5036967;28;20796;-78
2023/04/14 14:04:08;;;;;;;24.00;22.13;;;;;;;;;;5036324;28;20493;-78
2023/04/14 14:06:37;;;;;;;23.50;21.90;;;;;;;;;;5035849;28;20425;-78
2023/04/14 14:09:05;;;;;;;22.93;21.37;;;;;;;;;;5035546;28;20460;-78
2023/04/14 14:11:32;;;;;;;24.43;22.83;;;;;;;;;;5035388;28;20448;-78
2023/04/14 14:13:59;;;;;;;23.30;21.80;;;;;;;;;;5036130;28;20451;-78
2023/04/14 14:16:26;;;;;;;24.17;22.27;;;;;;;;;;5035589;28;20422;-78
2023/04/14 14:18:53;;;;;;;24.23;22.53;;;;;;;;;;5035737;28;20488;-79
2023/04/14 14:21:20;;;;;;;24.20;22.70;;;;;;;;;;5035350;28;20483;-78